createdAt,value
2019-03-18T00:00:35.727Z,4.40
2019-03-18T00:03:08.394Z,4.40
2019-03-18T00:05:40.577Z,4.40
2019-03-18T00:08:13.516Z,4.30
2019-03-18T00:10:44.699Z,4.10
2019-03-18T00:13:16.047Z,4.10
2019-03-18T00:15:49.247Z,4.10
2019-03-18T00:18:22.692Z,4.00
2019-03-18T00:20:56.944Z,4.00
2019-03-18T00:23:28.104Z,3.90
2019-03-18T00:26:00.186Z,3.90
2019-03-18T00:28:31.152Z,3.80
2019-03-18T00:31:05.740Z,3.90
2019-03-18T00:33:36.850Z,3.80
2019-03-18T00:36:11.429Z,4.00
2019-03-18T00:38:45.086Z,4.00
2019-03-18T00:41:16.724Z,3.90
2019-03-18T00:43:46.625Z,3.90
2019-03-18T00:46:18.624Z,3.90
2019-03-18T00:48:54.887Z,3.90
2019-03-18T00:51:28.858Z,3.90
2019-03-18T00:54:02.842Z,3.90
2019-03-18T00:56:34.958Z,3.90
2019-03-18T00:59:19.936Z,3.90
2019-03-18T01:01:53.116Z,3.80
2019-03-18T01:04:35.224Z,3.80
2019-03-18T01:07:08.925Z,3.90
2019-03-18T01:09:38.566Z,3.90
2019-03-18T01:12:16.181Z,3.80
2019-03-18T01:14:51.064Z,3.80
2019-03-18T01:17:22.228Z,3.80
2019-03-18T01:19:53.048Z,3.80
2019-03-18T01:22:25.659Z,3.80
2019-03-18T01:24:55.917Z,3.70
2019-03-18T01:27:26.148Z,3.70
2019-03-18T01:29:56.186Z,3.60
2019-03-18T01:32:27.445Z,3.60
2019-03-18T01:34:58.347Z,3.50
2019-03-18T01:37:31.279Z,3.50
2019-03-18T01:40:24.393Z,3.50
2019-03-18T01:42:53.251Z,3.40
2019-03-18T01:45:22.885Z,3.50
2019-03-18T01:47:51.847Z,3.40
2019-03-18T01:50:20.685Z,3.40
2019-03-18T01:52:49.846Z,3.40
2019-03-18T01:55:18.674Z,3.40
2019-03-18T01:57:47.515Z,3.40
2019-03-18T02:00:16.825Z,3.40
2019-03-18T02:02:46.599Z,3.40
2019-03-18T02:05:15.487Z,3.40
2019-03-18T02:07:44.659Z,3.40
2019-03-18T02:10:14.881Z,3.40
2019-03-18T02:12:43.819Z,3.40
2019-03-18T02:15:14.333Z,3.50
2019-03-18T02:17:44.512Z,3.40
2019-03-18T02:20:15.243Z,3.50
2019-03-18T02:23:03.345Z,3.50
2019-03-18T02:25:32.192Z,3.60
2019-03-18T02:28:00.925Z,3.60
2019-03-18T02:30:31.683Z,3.50
2019-03-18T02:33:00.248Z,3.60
2019-03-18T02:35:29.051Z,3.60
2019-03-18T02:37:57.882Z,3.60
2019-03-18T02:40:26.714Z,3.60
2019-03-18T02:42:55.571Z,3.60
2019-03-18T02:45:24.934Z,3.60
2019-03-18T02:47:54.782Z,3.60
2019-03-18T02:50:23.597Z,3.60
2019-03-18T02:52:52.511Z,3.60
2019-03-18T02:55:21.240Z,3.70
2019-03-18T02:57:50.079Z,3.70
2019-03-18T03:00:19.267Z,3.60
2019-03-18T03:02:49.328Z,3.70
2019-03-18T03:05:18.149Z,3.60
2019-03-18T03:07:47.861Z,3.60
2019-03-18T03:10:16.724Z,3.60
2019-03-18T03:12:45.801Z,3.50
2019-03-18T03:15:15.068Z,3.50
2019-03-18T03:17:45.170Z,3.50
2019-03-18T03:20:13.973Z,3.50
2019-03-18T03:22:42.824Z,3.50
2019-03-18T03:25:12.150Z,3.40
2019-03-18T03:27:42.005Z,3.30
2019-03-18T03:30:15.401Z,3.30
2019-03-18T03:32:44.565Z,3.20
2019-03-18T03:35:14.578Z,3.20
2019-03-18T03:37:43.471Z,3.10
2019-03-18T03:40:12.668Z,3.00
2019-03-18T03:42:41.504Z,3.00
2019-03-18T03:45:14.517Z,2.90
2019-03-18T03:48:02.582Z,2.90
2019-03-18T03:50:31.422Z,2.80
2019-03-18T03:53:00.225Z,2.70
2019-03-18T03:55:29.063Z,2.70
2019-03-18T03:57:57.922Z,2.60
2019-03-18T04:00:27.099Z,2.60
2019-03-18T04:02:55.939Z,2.70
2019-03-18T04:05:25.072Z,2.60
2019-03-18T04:07:53.838Z,2.60
2019-03-18T04:10:22.645Z,2.60
2019-03-18T04:12:51.514Z,2.60
2019-03-18T04:15:20.319Z,2.60
2019-03-18T04:17:49.140Z,2.60
2019-03-18T04:20:18.190Z,2.50
2019-03-18T04:22:47.109Z,2.50
2019-03-18T04:25:15.877Z,2.40
2019-03-18T04:27:44.714Z,2.50
2019-03-18T04:30:16.791Z,2.40
2019-03-18T04:32:45.644Z,2.40
2019-03-18T04:35:14.466Z,2.40
2019-03-18T04:37:43.348Z,2.40
2019-03-18T04:40:12.410Z,2.40
2019-03-18T04:42:41.648Z,2.40
2019-03-18T04:45:11.060Z,2.40
2019-03-18T04:47:39.777Z,2.30
2019-03-18T04:50:10.500Z,2.30
2019-03-18T04:52:39.330Z,2.30
2019-03-18T04:55:08.901Z,2.30
2019-03-18T04:57:37.682Z,2.20
2019-03-18T05:00:09.049Z,2.30
2019-03-18T05:02:38.807Z,2.20
2019-03-18T05:05:07.684Z,2.20
2019-03-18T05:07:36.530Z,2.20
2019-03-18T05:10:08.045Z,2.20
2019-03-18T05:12:38.404Z,2.20
2019-03-18T05:15:08.803Z,2.20
2019-03-18T05:17:38.017Z,2.20
2019-03-18T05:20:11.251Z,2.20
2019-03-18T05:22:41.071Z,2.20
2019-03-18T05:25:10.683Z,2.20
2019-03-18T05:27:39.522Z,2.20
2019-03-18T05:30:15.048Z,2.20
2019-03-18T05:32:43.891Z,2.10
2019-03-18T05:35:12.695Z,2.10
2019-03-18T05:37:41.913Z,2.00
2019-03-18T05:40:12.350Z,1.90
2019-03-18T05:42:41.545Z,1.90
2019-03-18T05:45:11.402Z,1.90
2019-03-18T05:47:40.327Z,1.80
2019-03-18T05:50:10.680Z,1.70
2019-03-18T05:52:39.514Z,1.70
2019-03-18T05:55:10.059Z,1.60
2019-03-18T05:57:40.831Z,1.60
2019-03-18T06:00:15.486Z,1.50
2019-03-18T06:02:46.796Z,1.40
2019-03-18T06:05:15.098Z,1.30
2019-03-18T06:07:44.473Z,1.30
2019-03-18T06:10:13.885Z,1.20
2019-03-18T06:12:42.781Z,1.20
2019-03-18T06:15:14.564Z,1.10
2019-03-18T06:17:52.192Z,1.10
2019-03-18T06:20:14.049Z,1.10
2019-03-18T06:22:42.991Z,1.10
2019-03-18T06:25:11.798Z,1.10
2019-03-18T06:27:40.898Z,1.20
2019-03-18T06:30:14.404Z,1.20
2019-03-18T06:32:43.233Z,1.30
2019-03-18T06:35:13.336Z,1.30
2019-03-18T06:37:42.471Z,1.30
2019-03-18T06:40:13.057Z,1.30
2019-03-18T06:42:41.892Z,1.20
2019-03-18T06:45:14.014Z,1.10
2019-03-18T06:47:43.192Z,1.10
2019-03-18T06:50:33.000Z,1.10
2019-03-18T06:53:02.146Z,1.10
2019-03-18T06:55:30.946Z,1.00
2019-03-18T06:57:59.801Z,1.10
2019-03-18T07:00:28.636Z,1.20
2019-03-18T07:02:58.682Z,1.40
2019-03-18T07:05:28.497Z,1.50
2019-03-18T07:07:57.218Z,1.60
2019-03-18T07:10:25.972Z,1.80
2019-03-18T07:12:54.766Z,1.90
2019-03-18T07:15:23.593Z,1.90
2019-03-18T07:17:53.913Z,2.00
2019-03-18T07:20:22.757Z,1.90
2019-03-18T07:22:51.790Z,2.00
2019-03-18T07:25:20.594Z,1.90
2019-03-18T07:27:49.431Z,1.90
2019-03-18T07:30:18.277Z,1.80
2019-03-18T07:32:47.077Z,1.80
2019-03-18T07:35:15.894Z,1.70
2019-03-18T07:37:45.706Z,1.80
2019-03-18T07:40:15.728Z,1.80
2019-03-18T07:42:44.579Z,1.80
2019-03-18T07:45:16.102Z,1.80
2019-03-18T07:47:45.149Z,1.80
2019-03-18T07:50:15.086Z,1.90
2019-03-18T07:52:44.941Z,2.10
2019-03-18T07:55:14.214Z,2.20
2019-03-18T07:57:43.499Z,2.40
2019-03-18T08:00:14.044Z,2.50
2019-03-18T08:02:43.173Z,2.60
2019-03-18T08:05:12.089Z,2.80
2019-03-18T08:07:40.889Z,2.90
2019-03-18T08:10:12.864Z,3.00
2019-03-18T08:12:41.663Z,3.10
2019-03-18T08:15:11.710Z,3.20
2019-03-18T08:17:40.488Z,3.20
2019-03-18T08:20:13.816Z,3.30
2019-03-18T08:22:42.598Z,3.40
2019-03-18T08:25:11.635Z,3.40
2019-03-18T08:27:40.465Z,3.40
2019-03-18T08:30:19.571Z,3.40
2019-03-18T08:32:50.088Z,3.40
2019-03-18T08:35:19.298Z,3.30
2019-03-18T08:37:49.537Z,3.40
2019-03-18T08:40:18.453Z,3.40
2019-03-18T08:42:47.677Z,3.50
2019-03-18T08:45:16.516Z,3.60
2019-03-18T08:47:45.372Z,3.70
2019-03-18T08:50:14.430Z,3.70
2019-03-18T08:52:43.650Z,3.80
2019-03-18T08:55:12.741Z,3.90
2019-03-18T08:57:41.582Z,4.00
2019-03-18T09:00:15.791Z,4.20
2019-03-18T09:02:44.616Z,4.30
2019-03-18T09:05:13.625Z,4.40
2019-03-18T09:07:43.912Z,4.50
2019-03-18T09:10:14.020Z,4.70
2019-03-18T09:12:42.862Z,4.80
2019-03-18T09:15:12.564Z,4.90
2019-03-18T09:17:53.643Z,5.00
2019-03-18T09:20:24.158Z,5.10
2019-03-18T09:22:52.942Z,5.30
2019-03-18T09:25:21.720Z,5.40
2019-03-18T09:27:50.612Z,5.50
2019-03-18T09:30:20.565Z,5.60
2019-03-18T09:32:49.383Z,5.70
2019-03-18T09:35:18.501Z,5.80
2019-03-18T09:37:47.713Z,5.90
2019-03-18T09:40:16.947Z,5.90
2019-03-18T09:42:46.110Z,6.10
2019-03-18T09:45:16.280Z,6.20
2019-03-18T09:47:45.057Z,6.40
2019-03-18T09:50:14.667Z,6.60
2019-03-18T09:52:43.819Z,6.70
2019-03-18T09:55:13.156Z,6.80
2019-03-18T09:57:43.199Z,6.80
2019-03-18T10:00:14.440Z,6.90
2019-03-18T10:02:43.667Z,7.00
2019-03-18T10:05:12.463Z,7.10
2019-03-18T10:07:41.304Z,7.20
2019-03-18T10:10:11.510Z,7.20
2019-03-18T10:12:40.349Z,7.40
2019-03-18T10:15:17.551Z,7.50
2019-03-18T10:17:46.448Z,7.50
2019-03-18T10:20:15.251Z,7.70
2019-03-18T10:22:44.086Z,7.80
2019-03-18T10:25:12.854Z,7.90
2019-03-18T10:27:41.694Z,7.90
2019-03-18T10:30:12.772Z,8.00
2019-03-18T10:32:41.561Z,8.10
2019-03-18T10:35:10.909Z,8.20
2019-03-18T10:37:39.717Z,8.30
2019-03-18T10:40:14.929Z,8.30
2019-03-18T10:42:43.736Z,8.40
2019-03-18T10:45:13.342Z,8.60
2019-03-18T10:47:43.560Z,8.60
2019-03-18T10:50:16.395Z,8.70
2019-03-18T10:52:45.256Z,8.70
2019-03-18T10:55:14.429Z,8.80
2019-03-18T10:57:43.252Z,8.90
2019-03-18T11:00:14.850Z,8.80
2019-03-18T11:02:45.131Z,8.90
2019-03-18T11:05:14.816Z,9.00
2019-03-18T11:07:43.641Z,9.00
2019-03-18T11:10:13.924Z,9.20
2019-03-18T11:12:42.632Z,9.40
2019-03-18T11:15:16.798Z,9.60
2019-03-18T11:17:46.270Z,9.60
2019-03-18T11:20:17.099Z,9.70
2019-03-18T11:22:45.907Z,9.60
2019-03-18T11:25:15.569Z,9.60
2019-03-18T11:27:44.422Z,9.40
2019-03-18T11:30:20.246Z,9.40
2019-03-18T11:32:49.090Z,9.40
2019-03-18T11:35:17.923Z,9.40
2019-03-18T11:37:46.855Z,9.60
2019-03-18T11:40:19.849Z,9.60
2019-03-18T11:42:48.758Z,9.60
2019-03-18T11:45:18.092Z,9.70
2019-03-18T11:47:47.196Z,9.80
2019-03-18T11:50:20.580Z,9.80
2019-03-18T11:52:49.370Z,10.00
2019-03-18T11:55:20.486Z,10.00
2019-03-18T11:57:50.226Z,10.10
2019-03-18T12:00:20.582Z,10.20
2019-03-18T12:02:49.381Z,10.20
2019-03-18T12:05:23.248Z,10.40
2019-03-18T12:07:52.438Z,10.50
2019-03-18T12:10:25.116Z,10.40
2019-03-18T12:12:52.352Z,10.40
2019-03-18T12:15:23.557Z,10.40
2019-03-18T12:17:53.662Z,10.60
2019-03-18T12:20:25.459Z,10.50
2019-03-18T12:22:53.432Z,10.60
2019-03-18T12:25:22.327Z,10.40
2019-03-18T12:27:51.223Z,10.50
2019-03-18T12:30:27.916Z,10.60
2019-03-18T12:32:56.757Z,10.60
2019-03-18T12:35:25.566Z,10.60
2019-03-18T12:37:54.482Z,10.40
2019-03-18T12:40:23.683Z,10.60
2019-03-18T12:42:52.470Z,10.60
2019-03-18T12:45:22.118Z,10.70
2019-03-18T12:47:50.910Z,10.70
2019-03-18T12:50:43.190Z,10.80
2019-03-18T12:52:54.856Z,10.80
2019-03-18T12:55:23.684Z,10.60
2019-03-18T12:57:52.503Z,10.50
2019-03-18T13:00:27.427Z,10.60
2019-03-18T13:02:56.420Z,10.60
2019-03-18T13:05:25.290Z,10.40
2019-03-18T13:07:54.068Z,10.30
2019-03-18T13:10:22.917Z,10.30
2019-03-18T13:12:51.707Z,10.10
2019-03-18T13:15:21.242Z,10.40
2019-03-18T13:17:50.106Z,10.50
2019-03-18T13:20:20.417Z,10.70
2019-03-18T13:22:49.294Z,10.80
2019-03-18T13:25:18.098Z,10.80
2019-03-18T13:27:46.935Z,11.00
2019-03-18T13:30:23.454Z,11.10
2019-03-18T13:32:52.361Z,11.30
2019-03-18T13:35:21.154Z,11.40
2019-03-18T13:37:50.021Z,11.30
2019-03-18T13:40:19.573Z,11.30
2019-03-18T13:42:48.406Z,11.10
2019-03-18T13:45:21.501Z,11.00
2019-03-18T13:47:50.490Z,11.00
2019-03-18T13:50:22.519Z,11.10
2019-03-18T13:52:51.335Z,11.20
2019-03-18T13:55:20.711Z,11.30
2019-03-18T13:57:49.646Z,11.10
2019-03-18T14:00:22.579Z,11.20
2019-03-18T14:02:51.399Z,11.00
2019-03-18T14:05:20.247Z,11.10
2019-03-18T14:07:59.696Z,11.20
2019-03-18T14:10:23.411Z,11.10
2019-03-18T14:12:52.610Z,11.40
2019-03-18T14:15:23.516Z,11.50
2019-03-18T14:17:52.356Z,11.40
2019-03-18T14:20:30.507Z,11.20
2019-03-18T14:22:59.321Z,11.00
2019-03-18T14:25:28.245Z,10.60
2019-03-18T14:27:57.070Z,10.50
2019-03-18T14:30:25.869Z,10.50
2019-03-18T14:32:56.024Z,10.50
2019-03-18T14:35:24.805Z,10.40
2019-03-18T14:37:53.654Z,10.40
2019-03-18T14:40:24.734Z,10.50
2019-03-18T14:42:54.057Z,10.30
2019-03-18T14:45:25.857Z,10.20
2019-03-18T14:47:54.643Z,10.10
2019-03-18T14:50:23.461Z,10.00
2019-03-18T14:52:52.661Z,10.00
2019-03-18T14:55:21.467Z,9.80
2019-03-18T14:57:50.253Z,9.80
2019-03-18T15:00:24.160Z,10.00
2019-03-18T15:02:52.995Z,10.10
2019-03-18T15:05:21.732Z,10.00
2019-03-18T15:07:50.545Z,9.90
2019-03-18T15:10:23.428Z,10.10
2019-03-18T15:12:52.163Z,10.10
2019-03-18T15:15:21.361Z,10.20
2019-03-18T15:17:50.167Z,10.10
2019-03-18T15:20:21.476Z,9.90
2019-03-18T15:22:50.283Z,9.90
2019-03-18T15:25:22.052Z,9.80
2019-03-18T15:27:51.096Z,9.60
2019-03-18T15:30:21.995Z,9.70
2019-03-18T15:32:50.794Z,9.60
2019-03-18T15:35:19.596Z,9.60
2019-03-18T15:37:48.392Z,9.40
2019-03-18T15:40:19.589Z,9.30
2019-03-18T15:42:50.130Z,9.20
2019-03-18T15:45:25.237Z,9.20
2019-03-18T15:47:56.608Z,9.20
2019-03-18T15:50:28.545Z,9.10
2019-03-18T15:52:59.225Z,9.00
2019-03-18T15:55:33.687Z,9.00
2019-03-18T15:58:04.757Z,8.80
2019-03-18T16:00:36.546Z,8.90
2019-03-18T16:03:06.205Z,8.80
2019-03-18T16:05:37.877Z,8.80
2019-03-18T16:08:07.492Z,8.80
2019-03-18T16:10:36.706Z,8.70
2019-03-18T16:13:07.985Z,8.70
2019-03-18T16:15:39.356Z,8.60
2019-03-18T16:18:10.276Z,8.70
2019-03-18T16:20:42.767Z,8.70
2019-03-18T16:23:12.782Z,8.80
2019-03-18T16:25:43.953Z,8.60
2019-03-18T16:28:15.296Z,8.50
2019-03-18T16:30:46.074Z,8.50
2019-03-18T16:33:17.588Z,8.50
2019-03-18T16:35:50.849Z,8.50
2019-03-18T16:38:22.209Z,8.40
2019-03-18T16:40:51.532Z,8.30
2019-03-18T16:43:20.605Z,8.30
2019-03-18T16:45:55.032Z,8.30
2019-03-18T16:48:27.295Z,8.40
2019-03-18T16:50:58.030Z,8.40
2019-03-18T16:53:31.122Z,8.40
2019-03-18T16:56:05.944Z,8.40
2019-03-18T16:58:37.324Z,8.30
2019-03-18T17:01:10.906Z,8.10
2019-03-18T17:03:41.638Z,8.00
2019-03-18T17:06:12.905Z,7.80
2019-03-18T17:08:47.562Z,7.80
2019-03-18T17:11:19.810Z,7.80
2019-03-18T17:13:50.070Z,7.70
2019-03-18T17:16:22.784Z,7.70
2019-03-18T17:18:53.900Z,7.60
2019-03-18T17:21:23.938Z,7.50
2019-03-18T17:26:42.508Z,7.40
2019-03-18T17:29:18.346Z,7.30
2019-03-18T17:31:51.077Z,7.20
2019-03-18T17:34:21.204Z,7.10
2019-03-18T17:36:50.119Z,7.00
2019-03-18T17:39:20.910Z,6.90
2019-03-18T17:41:50.597Z,6.90
2019-03-18T17:44:20.953Z,6.80
2019-03-18T17:46:52.871Z,6.70
2019-03-18T17:49:25.322Z,6.70
2019-03-18T17:51:55.528Z,6.70
2019-03-18T17:54:27.441Z,6.50
2019-03-18T17:57:07.120Z,6.50
2019-03-18T17:59:29.882Z,6.40
2019-03-18T18:02:01.524Z,6.30
2019-03-18T18:04:33.223Z,6.20
2019-03-18T18:07:04.004Z,6.20
2019-03-18T18:09:34.859Z,6.10
2019-03-18T18:12:04.681Z,6.10
2019-03-18T18:14:39.991Z,6.00
2019-03-18T18:17:13.837Z,5.90
2019-03-18T18:19:43.203Z,5.80
2019-03-18T18:22:14.530Z,5.80
2019-03-18T18:24:45.776Z,5.70
2019-03-18T18:27:19.264Z,5.60
2019-03-18T18:29:52.172Z,5.50
2019-03-18T18:32:23.318Z,5.50
2019-03-18T18:34:54.235Z,5.40
2019-03-18T18:37:24.982Z,5.30
2019-03-18T18:39:56.323Z,5.30
2019-03-18T18:42:29.248Z,5.20
2019-03-18T18:45:03.396Z,5.20
2019-03-18T18:47:33.460Z,5.10
2019-03-18T18:50:10.498Z,5.00
2019-03-18T18:52:44.261Z,5.00
2019-03-18T18:55:17.284Z,5.00
2019-03-18T18:57:53.862Z,4.90
2019-03-18T19:00:27.604Z,4.90
2019-03-18T19:02:59.175Z,4.80
2019-03-18T19:05:30.092Z,4.80
2019-03-18T19:08:02.626Z,4.80
2019-03-18T19:10:37.595Z,4.80
2019-03-18T19:13:06.497Z,4.80
2019-03-18T19:15:44.918Z,4.70
2019-03-18T19:18:15.775Z,4.70
2019-03-18T19:20:46.090Z,4.70
2019-03-18T19:23:19.062Z,4.70
2019-03-18T19:25:51.778Z,4.60
2019-03-18T19:28:23.392Z,4.60
2019-03-18T19:30:54.690Z,4.60
2019-03-18T19:33:26.928Z,4.60
2019-03-18T19:35:57.618Z,4.50
2019-03-18T19:38:26.982Z,4.50
2019-03-18T19:40:58.855Z,4.50
2019-03-18T19:43:30.721Z,4.50
2019-03-18T19:46:04.239Z,4.40
2019-03-18T19:48:46.733Z,4.40
2019-03-18T19:51:21.303Z,4.40
2019-03-18T19:53:52.573Z,4.40
2019-03-18T19:56:23.170Z,4.40
2019-03-18T19:58:56.156Z,4.40
2019-03-18T20:01:25.844Z,4.40
2019-03-18T20:03:56.405Z,4.40
2019-03-18T20:06:29.533Z,4.40
2019-03-18T20:09:01.647Z,4.40
2019-03-18T20:11:32.000Z,4.40
2019-03-18T20:14:02.290Z,4.30
2019-03-18T20:16:33.637Z,4.30
2019-03-18T20:19:03.921Z,4.20
2019-03-18T20:21:38.046Z,4.20
2019-03-18T20:24:09.410Z,4.20
2019-03-18T20:26:40.959Z,4.10
2019-03-18T20:29:12.640Z,4.10
2019-03-18T20:31:43.807Z,4.10
2019-03-18T20:34:14.735Z,4.10
2019-03-18T20:36:46.292Z,4.00
2019-03-18T20:39:21.462Z,4.00
2019-03-18T20:41:51.381Z,4.00
2019-03-18T20:44:25.067Z,4.00
2019-03-18T20:46:58.951Z,4.00
2019-03-18T20:49:30.762Z,3.90
2019-03-18T20:52:01.498Z,3.90
2019-03-18T20:54:37.371Z,3.90
2019-03-18T20:57:06.812Z,3.90
2019-03-18T20:59:37.844Z,3.90
2019-03-18T21:02:07.858Z,4.00
2019-03-18T21:04:39.102Z,4.00
2019-03-18T21:07:10.287Z,4.00
2019-03-18T21:09:42.990Z,4.00
2019-03-18T21:12:13.524Z,4.00
2019-03-18T21:14:45.765Z,4.00
2019-03-18T21:17:16.646Z,4.00
2019-03-18T21:19:48.301Z,4.00
2019-03-18T21:22:19.156Z,4.00
2019-03-18T21:24:50.324Z,4.00
2019-03-18T21:27:26.355Z,4.00
2019-03-18T21:29:57.684Z,4.00
2019-03-18T21:32:26.647Z,4.00
2019-03-18T21:34:55.840Z,4.00
2019-03-18T21:37:29.121Z,3.90
2019-03-18T21:39:58.950Z,3.90
2019-03-18T21:42:33.012Z,3.90
2019-03-18T21:45:02.231Z,3.90
2019-03-18T21:47:32.991Z,3.90
2019-03-18T21:50:06.099Z,3.90
2019-03-18T21:52:37.034Z,3.90
2019-03-18T21:55:08.354Z,3.90
2019-03-18T21:57:37.410Z,3.80
2019-03-18T22:00:12.745Z,3.80
2019-03-18T22:02:44.105Z,3.80
2019-03-18T22:05:16.280Z,3.70
2019-03-18T22:07:48.924Z,3.70
2019-03-18T22:10:19.441Z,3.60
2019-03-18T22:12:50.431Z,3.60
2019-03-18T22:15:20.199Z,3.60
2019-03-18T22:17:49.139Z,3.60
2019-03-18T22:20:22.363Z,3.60
2019-03-18T22:22:52.391Z,3.50
2019-03-18T22:25:22.860Z,3.50
2019-03-18T22:27:53.990Z,3.50
2019-03-18T22:30:22.982Z,3.50
2019-03-18T22:32:54.757Z,3.50
2019-03-18T22:35:26.736Z,3.40
2019-03-18T22:37:55.672Z,3.40
2019-03-18T22:40:28.796Z,3.30
2019-03-18T22:43:00.119Z,3.30
2019-03-18T22:45:31.713Z,3.30
2019-03-18T22:48:02.810Z,3.30
2019-03-18T22:50:35.534Z,3.30
2019-03-18T22:53:07.048Z,3.20
2019-03-18T22:55:37.343Z,3.20
2019-03-18T22:58:08.676Z,3.20
2019-03-18T23:00:39.340Z,3.10
2019-03-18T23:03:13.832Z,3.10
2019-03-18T23:05:44.501Z,3.10
2019-03-18T23:08:15.773Z,3.00
2019-03-18T23:10:50.955Z,3.00
2019-03-18T23:13:20.981Z,3.00
2019-03-18T23:15:50.205Z,3.00
2019-03-18T23:18:23.411Z,2.90
2019-03-18T23:20:54.097Z,2.90
2019-03-18T23:23:24.396Z,2.90
2019-03-18T23:25:57.893Z,2.90
2019-03-18T23:28:30.076Z,2.90
2019-03-18T23:31:00.346Z,2.90
2019-03-18T23:33:35.372Z,2.90
2019-03-18T23:36:08.148Z,2.90
2019-03-18T23:38:39.369Z,2.90
2019-03-18T23:41:10.106Z,2.90
2019-03-18T23:43:39.700Z,2.90
2019-03-18T23:46:12.385Z,2.90
2019-03-18T23:48:41.913Z,2.90
2019-03-18T23:51:14.125Z,2.90
2019-03-18T23:53:46.054Z,2.90
2019-03-18T23:56:18.243Z,2.90
2019-03-18T23:58:50.914Z,2.90
